createdAt,value
2018-10-21T00:01:40.257Z,12.30
2018-10-21T00:04:09.272Z,12.30
2018-10-21T00:06:38.207Z,12.30
2018-10-21T00:09:09.531Z,12.30
2018-10-21T00:11:38.565Z,12.30
2018-10-21T00:14:07.510Z,12.30
2018-10-21T00:16:36.463Z,12.30
2018-10-21T00:19:05.975Z,12.30
2018-10-21T00:21:35.315Z,12.30
2018-10-21T00:24:04.412Z,12.30
2018-10-21T00:26:33.400Z,12.40
2018-10-21T00:29:02.374Z,12.40
2018-10-21T00:31:31.299Z,12.40
2018-10-21T00:34:00.219Z,12.40
2018-10-21T00:36:29.182Z,12.40
2018-10-21T00:38:58.134Z,12.40
2018-10-21T00:41:27.058Z,12.40
2018-10-21T00:43:56.411Z,12.40
2018-10-21T00:46:25.339Z,12.40
2018-10-21T00:48:54.290Z,12.40
2018-10-21T00:51:23.215Z,12.40
2018-10-21T00:53:52.159Z,12.40
2018-10-21T00:56:21.091Z,12.40
2018-10-21T00:58:50.043Z,12.40
2018-10-21T01:01:18.967Z,12.50
2018-10-21T01:03:47.922Z,12.50
2018-10-21T01:06:16.939Z,12.50
2018-10-21T01:08:45.895Z,12.50
2018-10-21T01:11:14.868Z,12.50
2018-10-21T01:13:43.809Z,12.50
2018-10-21T01:16:12.740Z,12.50
2018-10-21T01:18:41.684Z,12.50
2018-10-21T01:21:10.735Z,12.50
2018-10-21T01:23:39.683Z,12.60
2018-10-21T01:26:08.639Z,12.60
2018-10-21T01:28:37.567Z,12.60
2018-10-21T01:31:06.726Z,12.60
2018-10-21T01:33:35.795Z,12.60
2018-10-21T01:36:04.782Z,12.60
2018-10-21T01:38:33.757Z,12.60
2018-10-21T01:41:02.696Z,12.60
2018-10-21T01:43:33.579Z,12.60
2018-10-21T01:46:03.366Z,12.60
2018-10-21T01:48:33.014Z,12.60
2018-10-21T01:51:01.987Z,12.60
2018-10-21T01:53:30.936Z,12.60
2018-10-21T01:55:59.881Z,12.70
2018-10-21T01:58:29.126Z,12.70
2018-10-21T02:00:58.180Z,12.70
2018-10-21T02:03:27.143Z,12.70
2018-10-21T02:05:56.083Z,12.70
2018-10-21T02:08:25.024Z,12.70
2018-10-21T02:10:53.989Z,12.70
2018-10-21T02:13:22.951Z,12.70
2018-10-21T02:15:51.882Z,12.70
2018-10-21T02:18:20.824Z,12.60
2018-10-21T02:20:49.767Z,12.70
2018-10-21T02:23:18.763Z,12.70
2018-10-21T02:25:47.710Z,12.70
2018-10-21T02:28:16.678Z,12.70
2018-10-21T02:30:45.754Z,12.70
2018-10-21T02:33:14.887Z,12.70
2018-10-21T02:35:43.832Z,12.70
2018-10-21T02:38:12.780Z,12.70
2018-10-21T02:41:49.839Z,12.70
2018-10-21T02:44:20.104Z,12.70
2018-10-21T02:46:50.262Z,10.70
2018-10-21T02:49:19.743Z,12.70
2018-10-21T02:51:54.187Z,12.70
2018-10-21T02:54:26.135Z,12.70
2018-10-21T02:56:55.148Z,12.70
2018-10-21T02:59:24.584Z,12.70
2018-10-21T03:01:53.559Z,12.70
2018-10-21T03:04:22.812Z,12.70
2018-10-21T03:06:52.193Z,12.70
2018-10-21T03:09:21.249Z,12.70
2018-10-21T03:11:50.171Z,12.70
2018-10-21T03:14:19.163Z,12.70
2018-10-21T03:16:48.121Z,12.70
2018-10-21T03:19:17.253Z,12.70
2018-10-21T03:21:46.279Z,12.70
2018-10-21T03:24:15.251Z,12.70
2018-10-21T03:26:45.004Z,12.70
2018-10-21T03:29:13.999Z,12.70
2018-10-21T03:31:42.932Z,12.70
2018-10-21T03:34:11.891Z,12.70
2018-10-21T03:36:40.834Z,12.70
2018-10-21T03:39:10.839Z,12.80
2018-10-21T03:41:40.491Z,12.80
2018-10-21T03:44:09.431Z,12.80
2018-10-21T03:46:38.362Z,12.80
2018-10-21T03:49:07.419Z,12.70
2018-10-21T03:51:36.386Z,12.70
2018-10-21T03:54:05.430Z,12.70
2018-10-21T03:56:34.398Z,12.70
2018-10-21T03:59:03.397Z,12.70
2018-10-21T04:01:32.359Z,12.70
2018-10-21T04:04:01.458Z,12.70
2018-10-21T04:06:30.462Z,12.70
2018-10-21T04:08:59.482Z,12.60
2018-10-21T04:11:28.418Z,12.60
2018-10-21T04:13:57.371Z,12.60
2018-10-21T04:16:26.374Z,12.60
2018-10-21T04:18:55.314Z,12.50
2018-10-21T04:21:24.283Z,12.50
2018-10-21T04:23:53.243Z,12.40
2018-10-21T04:26:22.355Z,12.40
2018-10-21T04:28:51.295Z,12.40
2018-10-21T04:31:20.234Z,12.30
2018-10-21T04:33:49.254Z,12.30
2018-10-21T04:36:21.018Z,12.30
2018-10-21T04:40:06.300Z,12.20
2018-10-21T04:42:35.275Z,12.20
2018-10-21T04:45:04.542Z,12.10
2018-10-21T04:47:33.543Z,12.10
2018-10-21T04:50:02.511Z,12.10
2018-10-21T04:52:32.355Z,12.10
2018-10-21T04:55:13.927Z,12.00
2018-10-21T04:57:44.061Z,12.00
2018-10-21T05:00:14.896Z,12.00
2018-10-21T05:02:43.910Z,11.90
2018-10-21T05:05:13.895Z,11.90
2018-10-21T05:07:43.047Z,11.90
2018-10-21T05:10:24.700Z,11.90
2018-10-21T05:12:53.659Z,11.90
2018-10-21T05:15:23.626Z,11.90
2018-10-21T05:17:52.907Z,11.80
2018-10-21T05:20:21.918Z,11.80
2018-10-21T05:22:50.886Z,11.80
2018-10-21T05:25:19.864Z,11.80
2018-10-21T05:27:48.847Z,11.80
2018-10-21T05:30:17.778Z,11.80
2018-10-21T05:32:46.728Z,11.80
2018-10-21T05:35:16.747Z,11.80
2018-10-21T05:37:45.694Z,11.70
2018-10-21T05:40:19.894Z,11.70
2018-10-21T05:42:49.286Z,11.70
2018-10-21T05:45:18.725Z,11.70
2018-10-21T05:47:47.670Z,11.70
2018-10-21T05:50:17.127Z,11.70
2018-10-21T05:52:46.144Z,11.70
2018-10-21T05:55:15.800Z,11.80
2018-10-21T05:57:44.855Z,11.80
2018-10-21T06:00:16.795Z,11.80
2018-10-21T06:02:45.778Z,11.90
2018-10-21T06:05:45.027Z,11.90
2018-10-21T06:08:14.026Z,11.90
2018-10-21T06:10:43.678Z,12.00
2018-10-21T06:13:13.272Z,12.00
2018-10-21T06:15:42.378Z,11.90
2018-10-21T06:18:17.815Z,11.90
2018-10-21T06:20:51.131Z,11.90
2018-10-21T06:23:21.131Z,11.90
2018-10-21T06:25:50.586Z,11.90
2018-10-21T06:28:19.566Z,11.90
2018-10-21T06:30:48.614Z,11.80
2018-10-21T06:33:17.655Z,11.80
2018-10-21T06:35:46.580Z,11.80
2018-10-21T06:38:15.572Z,11.80
2018-10-21T06:40:44.524Z,11.80
2018-10-21T06:43:13.506Z,11.80
2018-10-21T06:45:42.531Z,11.80
2018-10-21T06:48:11.489Z,11.80
2018-10-21T06:50:40.514Z,11.80
2018-10-21T06:53:10.742Z,11.80
2018-10-21T06:55:40.128Z,11.80
2018-10-21T06:58:10.235Z,11.80
2018-10-21T07:00:39.202Z,11.90
2018-10-21T07:03:09.639Z,11.90
2018-10-21T07:06:20.443Z,11.90
2018-10-21T07:08:51.542Z,12.00
2018-10-21T07:11:34.166Z,12.00
2018-10-21T07:14:06.043Z,12.10
2018-10-21T07:16:35.164Z,12.20
2018-10-21T07:19:03.951Z,12.20
2018-10-21T07:21:32.928Z,12.20
2018-10-21T07:24:01.872Z,12.20
2018-10-21T07:26:30.811Z,12.30
2018-10-21T07:28:59.745Z,12.30
2018-10-21T07:31:28.691Z,12.30
2018-10-21T07:33:57.689Z,12.30
2018-10-21T07:36:26.669Z,12.40
2018-10-21T07:38:55.602Z,12.40
2018-10-21T07:41:24.525Z,12.40
2018-10-21T07:43:53.447Z,12.50
2018-10-21T07:46:23.354Z,12.50
2018-10-21T07:48:52.312Z,12.60
2018-10-21T07:51:21.256Z,12.70
2018-10-21T07:53:50.208Z,12.80
2018-10-21T07:56:19.157Z,12.80
2018-10-21T07:58:48.131Z,12.90
2018-10-21T08:01:17.083Z,13.00
2018-10-21T08:03:46.015Z,13.00
2018-10-21T08:06:28.217Z,13.10
2018-10-21T08:08:57.166Z,13.10
2018-10-21T08:11:26.107Z,13.20
2018-10-21T08:13:55.147Z,13.20
2018-10-21T08:16:24.173Z,13.20
2018-10-21T08:18:53.604Z,13.30
2018-10-21T08:21:22.652Z,13.30
2018-10-21T08:23:51.600Z,13.40
2018-10-21T08:26:20.536Z,13.50
2018-10-21T08:28:49.492Z,13.50
2018-10-21T08:31:18.490Z,13.50
2018-10-21T08:33:48.144Z,13.50
2018-10-21T08:36:17.144Z,13.60
2018-10-21T08:38:46.747Z,13.60
2018-10-21T08:41:15.732Z,13.60
2018-10-21T08:43:45.811Z,13.60
2018-10-21T08:46:14.909Z,13.70
2018-10-21T08:48:43.861Z,13.70
2018-10-21T08:51:12.808Z,13.70
2018-10-21T08:53:41.779Z,13.70
2018-10-21T08:56:10.772Z,13.70
2018-10-21T08:58:42.077Z,13.80
2018-10-21T09:01:11.174Z,13.80
2018-10-21T09:03:40.210Z,13.80
2018-10-21T09:06:09.895Z,13.90
2018-10-21T09:08:39.137Z,14.00
2018-10-21T09:11:08.248Z,14.00
2018-10-21T09:13:37.219Z,14.10
2018-10-21T09:16:06.288Z,14.20
2018-10-21T09:18:35.307Z,14.30
2018-10-21T09:21:04.939Z,14.30
2018-10-21T09:23:33.968Z,14.40
2018-10-21T09:26:02.908Z,14.50
2018-10-21T09:28:31.915Z,14.50
2018-10-21T09:31:00.941Z,14.60
2018-10-21T09:33:29.994Z,14.60
2018-10-21T09:35:58.972Z,14.70
2018-10-21T09:38:27.944Z,14.70
2018-10-21T09:40:56.904Z,14.70
2018-10-21T09:43:25.877Z,14.80
2018-10-21T09:45:54.907Z,14.90
2018-10-21T09:48:23.860Z,14.90
2018-10-21T09:50:52.871Z,14.90
2018-10-21T09:53:21.828Z,15.00
2018-10-21T09:55:50.744Z,15.10
2018-10-21T09:58:19.813Z,15.20
2018-10-21T10:00:53.933Z,15.30
2018-10-21T10:03:23.028Z,15.20
2018-10-21T10:05:51.987Z,15.30
2018-10-21T10:08:20.970Z,15.40
2018-10-21T10:10:49.903Z,15.40
2018-10-21T10:13:18.917Z,15.40
2018-10-21T10:15:47.851Z,15.50
2018-10-21T10:18:16.804Z,15.50
2018-10-21T10:20:45.760Z,15.50
2018-10-21T10:23:14.723Z,15.40
2018-10-21T10:25:43.676Z,15.40
2018-10-21T10:28:12.661Z,15.40
2018-10-21T10:30:41.608Z,15.50
2018-10-21T10:33:11.015Z,15.60
2018-10-21T10:35:39.991Z,15.70
2018-10-21T10:38:08.940Z,15.80
2018-10-21T10:40:37.876Z,15.90
2018-10-21T10:43:06.916Z,16.00
2018-10-21T10:45:35.910Z,16.00
2018-10-21T10:48:04.873Z,16.10
2018-10-21T10:50:33.824Z,16.20
2018-10-21T10:53:02.844Z,16.30
2018-10-21T10:55:37.481Z,16.40
2018-10-21T10:58:06.582Z,16.60
2018-10-21T11:00:35.497Z,16.70
2018-10-21T11:03:04.770Z,17.10
2018-10-21T11:05:33.753Z,17.40
2018-10-21T11:08:02.671Z,17.70
2018-10-21T11:10:31.987Z,17.80
2018-10-21T11:13:01.261Z,17.90
2018-10-21T11:15:30.336Z,17.70
2018-10-21T11:17:59.344Z,17.70
2018-10-21T11:20:28.415Z,17.70
2018-10-21T11:22:57.495Z,17.70
2018-10-21T11:25:26.435Z,17.70
2018-10-21T11:27:55.403Z,17.80
2018-10-21T11:30:24.342Z,17.80
2018-10-21T11:32:53.255Z,17.80
2018-10-21T11:35:22.218Z,17.60
2018-10-21T11:37:51.150Z,17.50
2018-10-21T11:40:20.256Z,17.50
2018-10-21T11:42:49.074Z,17.50
2018-10-21T11:45:17.996Z,17.60
2018-10-21T11:47:46.977Z,17.50
2018-10-21T11:50:15.915Z,17.40
2018-10-21T11:52:44.953Z,17.40
2018-10-21T11:55:13.860Z,17.40
2018-10-21T11:57:42.850Z,17.70
2018-10-21T12:00:11.836Z,17.70
2018-10-21T12:02:40.812Z,17.60
2018-10-21T12:05:10.233Z,17.50
2018-10-21T12:07:39.289Z,17.50
2018-10-21T12:10:08.584Z,18.10
2018-10-21T12:12:37.530Z,18.10
2018-10-21T12:15:06.629Z,18.20
2018-10-21T12:17:35.584Z,18.20
2018-10-21T12:20:04.676Z,18.20
2018-10-21T12:22:33.554Z,18.10
2018-10-21T12:25:04.587Z,18.10
2018-10-21T12:27:33.555Z,17.90
2018-10-21T12:30:02.766Z,17.90
2018-10-21T12:32:31.727Z,17.90
2018-10-21T12:35:00.682Z,17.80
2018-10-21T12:37:29.672Z,17.70
2018-10-21T12:39:59.218Z,17.60
2018-10-21T12:42:28.172Z,17.60
2018-10-21T12:44:57.207Z,17.60
2018-10-21T12:47:26.136Z,17.60
2018-10-21T12:49:55.092Z,17.70
2018-10-21T12:52:24.035Z,17.70
2018-10-21T12:54:52.987Z,17.70
2018-10-21T12:57:22.311Z,17.70
2018-10-21T12:59:51.339Z,17.60
2018-10-21T13:02:20.442Z,17.60
2018-10-21T13:04:49.349Z,17.50
2018-10-21T13:07:18.377Z,17.50
2018-10-21T13:09:47.305Z,17.40
2018-10-21T13:12:16.230Z,17.40
2018-10-21T13:14:45.223Z,17.40
2018-10-21T13:17:14.190Z,17.30
2018-10-21T13:19:43.255Z,17.30
2018-10-21T13:22:12.387Z,17.30
2018-10-21T13:24:41.403Z,17.30
2018-10-21T13:27:10.403Z,17.40
2018-10-21T13:29:39.351Z,17.40
2018-10-21T13:32:08.374Z,17.40
2018-10-21T13:34:37.690Z,17.40
2018-10-21T13:37:06.556Z,17.40
2018-10-21T13:39:35.611Z,17.40
2018-10-21T13:42:04.959Z,17.40
2018-10-21T13:44:35.485Z,17.40
2018-10-21T13:47:06.185Z,17.40
2018-10-21T13:49:35.155Z,17.40
2018-10-21T13:52:04.443Z,17.30
2018-10-21T13:54:33.425Z,17.40
2018-10-21T13:57:02.440Z,17.30
2018-10-21T13:59:31.650Z,17.30
2018-10-21T14:02:00.986Z,17.30
2018-10-21T14:04:30.001Z,17.20
2018-10-21T14:07:00.467Z,17.20
2018-10-21T14:09:29.327Z,17.20
2018-10-21T14:11:58.262Z,17.10
2018-10-21T14:14:27.370Z,17.10
2018-10-21T14:16:56.338Z,17.10
2018-10-21T14:19:25.294Z,17.00
2018-10-21T14:21:54.257Z,17.00
2018-10-21T14:24:23.243Z,17.00
2018-10-21T14:26:52.227Z,17.00
2018-10-21T14:29:27.154Z,17.00
2018-10-21T14:31:56.100Z,16.90
2018-10-21T14:34:25.026Z,16.90
2018-10-21T14:36:54.051Z,16.90
2018-10-21T14:39:23.016Z,16.90
2018-10-21T14:41:52.052Z,16.90
2018-10-21T14:44:21.454Z,16.80
2018-10-21T14:46:50.371Z,16.80
2018-10-21T14:49:19.415Z,16.80
2018-10-21T14:51:48.338Z,16.80
2018-10-21T14:54:17.816Z,16.80
2018-10-21T14:56:46.758Z,16.70
2018-10-21T14:59:15.747Z,16.70
2018-10-21T15:01:44.711Z,16.70
2018-10-21T15:04:13.711Z,16.70
2018-10-21T15:06:42.734Z,16.70
2018-10-21T15:09:13.465Z,16.60
2018-10-21T15:11:42.757Z,16.60
2018-10-21T15:14:12.429Z,16.60
2018-10-21T15:16:41.735Z,16.60
2018-10-21T15:19:10.698Z,16.60
2018-10-21T15:21:39.634Z,16.60
2018-10-21T15:24:08.573Z,16.60
2018-10-21T15:26:37.607Z,16.60
2018-10-21T15:29:06.826Z,16.60
2018-10-21T15:31:35.820Z,16.60
2018-10-21T15:34:04.795Z,16.60
2018-10-21T15:36:33.787Z,16.50
2018-10-21T15:39:02.802Z,16.50
2018-10-21T15:41:31.757Z,16.50
2018-10-21T15:44:01.027Z,16.50
2018-10-21T15:46:29.977Z,16.50
2018-10-21T15:48:58.969Z,16.50
2018-10-21T15:51:27.959Z,16.50
2018-10-21T15:53:57.042Z,16.50
2018-10-21T15:56:26.055Z,16.50
2018-10-21T15:58:55.028Z,16.50
2018-10-21T16:01:24.000Z,16.40
2018-10-21T16:03:53.406Z,16.30
2018-10-21T16:06:22.351Z,16.40
2018-10-21T16:08:51.302Z,16.30
2018-10-21T16:11:20.236Z,16.30
2018-10-21T16:13:49.183Z,16.20
2018-10-21T16:16:18.298Z,16.20
2018-10-21T16:18:47.163Z,16.20
2018-10-21T16:21:16.111Z,16.20
2018-10-21T16:23:45.037Z,16.10
2018-10-21T16:26:13.991Z,16.00
2018-10-21T16:28:43.132Z,16.00
2018-10-21T16:31:12.084Z,16.00
2018-10-21T16:33:41.067Z,15.90
2018-10-21T16:36:10.527Z,15.80
2018-10-21T16:38:39.450Z,15.70
2018-10-21T16:41:08.418Z,15.60
2018-10-21T16:43:38.192Z,15.60
2018-10-21T16:46:07.160Z,15.50
2018-10-21T16:48:36.126Z,15.40
2018-10-21T16:51:05.187Z,15.30
2018-10-21T16:53:34.118Z,15.30
2018-10-21T16:56:03.183Z,15.20
2018-10-21T16:58:32.178Z,15.20
2018-10-21T17:01:01.189Z,15.10
2018-10-21T17:03:30.090Z,15.10
2018-10-21T17:05:59.108Z,15.00
2018-10-21T17:08:28.058Z,14.90
2018-10-21T17:10:57.061Z,14.90
2018-10-21T17:13:26.016Z,14.90
2018-10-21T17:15:55.021Z,14.80
2018-10-21T17:18:23.996Z,14.80
2018-10-21T17:20:53.002Z,14.80
2018-10-21T17:23:21.991Z,14.80
2018-10-21T17:25:50.919Z,14.80
2018-10-21T17:28:19.911Z,14.70
2018-10-21T17:30:48.843Z,14.70
2018-10-21T17:33:17.761Z,14.70
2018-10-21T17:35:46.698Z,14.70
2018-10-21T17:38:15.633Z,14.70
2018-10-21T17:40:44.619Z,14.60
2018-10-21T17:43:13.593Z,14.60
2018-10-21T17:45:42.566Z,14.50
2018-10-21T17:48:11.535Z,14.50
2018-10-21T17:50:40.482Z,14.50
2018-10-21T17:53:09.425Z,14.50
2018-10-21T17:55:38.366Z,14.40
2018-10-21T17:58:07.461Z,14.30
2018-10-21T18:00:36.430Z,14.30
2018-10-21T18:03:05.654Z,14.30
2018-10-21T18:05:34.596Z,14.30
2018-10-21T18:08:03.540Z,14.20
2018-10-21T18:10:32.480Z,14.20
2018-10-21T18:13:01.501Z,14.20
2018-10-21T18:15:30.467Z,14.20
2018-10-21T18:17:59.405Z,14.10
2018-10-21T18:20:28.352Z,14.10
2018-10-21T18:22:57.294Z,14.00
2018-10-21T18:25:26.247Z,14.00
2018-10-21T18:27:55.181Z,14.00
2018-10-21T18:30:24.111Z,14.00
2018-10-21T18:32:53.072Z,14.00
2018-10-21T18:35:22.471Z,13.90
2018-10-21T18:37:51.458Z,13.90
2018-10-21T18:40:20.448Z,13.90
2018-10-21T18:42:49.444Z,13.90
2018-10-21T18:45:18.383Z,13.80
2018-10-21T18:47:47.379Z,13.80
2018-10-21T18:50:16.527Z,13.80
2018-10-21T18:52:46.418Z,13.80
2018-10-21T18:55:15.499Z,13.80
2018-10-21T18:57:44.384Z,13.80
2018-10-21T19:00:15.624Z,13.90
2018-10-21T19:02:44.578Z,13.90
2018-10-21T19:05:14.119Z,13.90
2018-10-21T19:07:43.072Z,14.00
2018-10-21T19:10:13.520Z,14.00
2018-10-21T19:12:42.526Z,14.00
2018-10-21T19:15:12.578Z,14.00
2018-10-21T19:17:42.091Z,14.00
2018-10-21T19:20:14.805Z,14.00
2018-10-21T19:22:43.777Z,14.00
2018-10-21T19:25:13.980Z,14.00
2018-10-21T19:27:43.922Z,14.00
2018-10-21T19:30:13.669Z,14.00
2018-10-21T19:32:43.137Z,13.90
2018-10-21T19:35:13.367Z,13.90
2018-10-21T19:37:42.329Z,13.90
2018-10-21T19:40:12.900Z,13.80
2018-10-21T19:42:42.364Z,13.80
2018-10-21T19:45:12.207Z,13.80
2018-10-21T19:47:41.551Z,13.70
2018-10-21T19:50:11.881Z,13.70
2018-10-21T19:52:41.798Z,13.70
2018-10-21T19:55:11.207Z,13.60
2018-10-21T19:57:40.147Z,13.60
2018-10-21T20:00:11.951Z,13.60
2018-10-21T20:02:40.911Z,13.50
2018-10-21T20:05:10.409Z,13.50
2018-10-21T20:07:39.386Z,13.50
2018-10-21T20:10:10.199Z,13.40
2018-10-21T20:12:39.168Z,13.40
2018-10-21T20:15:08.990Z,13.40
2018-10-21T20:17:37.984Z,13.40
2018-10-21T20:20:08.756Z,13.30
2018-10-21T20:22:39.900Z,13.30
2018-10-21T20:25:09.970Z,13.30
2018-10-21T20:27:38.999Z,13.30
2018-10-21T20:30:09.376Z,13.20
2018-10-21T20:32:38.717Z,13.20
2018-10-21T20:35:08.611Z,13.20
2018-10-21T20:37:37.578Z,13.20
2018-10-21T20:40:07.567Z,13.20
2018-10-21T20:42:36.565Z,13.20
2018-10-21T20:45:06.067Z,13.20
2018-10-21T20:47:35.075Z,13.10
2018-10-21T20:50:04.023Z,13.10
2018-10-21T20:52:32.951Z,13.10
2018-10-21T20:55:01.918Z,13.10
2018-10-21T20:57:30.891Z,13.10
2018-10-21T20:59:59.902Z,13.00
2018-10-21T21:02:28.827Z,13.00
2018-10-21T21:04:57.770Z,13.00
2018-10-21T21:07:26.715Z,13.00
2018-10-21T21:09:55.700Z,13.00
2018-10-21T21:12:24.626Z,13.00
2018-10-21T21:14:53.546Z,13.00
2018-10-21T21:17:22.479Z,13.00
2018-10-21T21:19:51.459Z,12.90
2018-10-21T21:22:20.495Z,12.90
2018-10-21T21:24:49.411Z,12.90
2018-10-21T21:27:18.339Z,12.90
2018-10-21T21:29:47.288Z,12.90
2018-10-21T21:32:16.627Z,12.90
2018-10-21T21:34:45.556Z,12.90
2018-10-21T21:37:14.491Z,12.90
2018-10-21T21:39:43.471Z,12.90
2018-10-21T21:42:12.472Z,12.90
2018-10-21T21:44:41.393Z,13.00
2018-10-21T21:47:10.348Z,13.00
2018-10-21T21:49:39.279Z,13.00
2018-10-21T21:52:08.241Z,13.00
2018-10-21T21:54:44.634Z,13.10
2018-10-21T21:57:14.595Z,13.10
2018-10-21T21:59:43.585Z,13.20
2018-10-21T22:02:14.727Z,13.20
2018-10-21T22:04:44.541Z,13.20
2018-10-21T22:07:26.948Z,13.30
2018-10-21T22:09:55.992Z,13.30
2018-10-21T22:12:30.495Z,13.30
2018-10-21T22:15:00.509Z,13.40
2018-10-21T22:17:35.449Z,13.40
2018-10-21T22:20:07.818Z,13.40
2018-10-21T22:22:37.883Z,13.50
2018-10-21T22:25:06.969Z,13.50
2018-10-21T22:27:37.666Z,13.50
2018-10-21T22:30:15.905Z,13.60
2018-10-21T22:32:46.777Z,13.60
2018-10-21T22:35:19.469Z,13.60
2018-10-21T22:37:50.326Z,13.60
2018-10-21T22:40:25.503Z,13.60
2018-10-21T22:42:55.362Z,13.70
2018-10-21T22:45:30.251Z,13.70
2018-10-21T22:48:00.105Z,13.70
2018-10-21T22:50:29.949Z,13.70
2018-10-21T22:53:00.220Z,13.80
2018-10-21T22:55:29.363Z,13.80
2018-10-21T22:57:58.354Z,13.80
2018-10-21T23:00:27.419Z,13.80
2018-10-21T23:02:56.448Z,13.80
2018-10-21T23:05:25.414Z,13.80
2018-10-21T23:07:55.007Z,13.90
2018-10-21T23:10:24.023Z,13.90
2018-10-21T23:12:53.251Z,13.90
2018-10-21T23:15:23.576Z,13.90
2018-10-21T23:17:56.407Z,14.00
2018-10-21T23:20:25.407Z,14.00
2018-10-21T23:22:59.768Z,14.00
2018-10-21T23:25:28.743Z,14.00
2018-10-21T23:27:57.688Z,14.10
2018-10-21T23:30:26.682Z,14.10
2018-10-21T23:32:55.618Z,14.10
2018-10-21T23:35:24.539Z,14.20
2018-10-21T23:37:53.457Z,14.20
2018-10-21T23:40:22.394Z,14.30
2018-10-21T23:42:51.338Z,14.40
2018-10-21T23:45:20.272Z,14.40
2018-10-21T23:47:49.258Z,14.50
2018-10-21T23:50:18.220Z,14.50
2018-10-21T23:52:47.568Z,14.50
2018-10-21T23:55:16.559Z,14.50
2018-10-21T23:57:45.492Z,14.60
